Neuburg — 5BQJ2 — position and weather

sailwx.info

Track history (hours):
 
Tides and Currents Weather Stations Pressure Air Temp Water Temp Dewpoint Dewpoint Depression Visibility Wind Speed Wind Dir Waves Ship Positions

Neuburg

Last reported at 2017-Jan-20 00:31 UTC. Time now 2017-Jan-20 05:54 UTC.
Position N 43°10' E 007°01'.

Length 142 m; draft 6 m.

Type: Ship (hazmat cat A). MMSI: 212740000.

Date/timePositionNaut miles runAvg speedWind from/ knotsBaromVisibWave heightAir tempDewpointWater temp
2017-Jan-20 00:31N 43°10' E 007°01'1718.0
2017-Jan-19 23:33N 43°21' E 007°19'1818.1
2017-Jan-19 22:33N 43°33' E 007°39'3918.0
2017-Jan-19 20:24N 43°57' E 008°20'1517.7
2017-Jan-19 19:34N 44°07' E 008°36'1717.4
2017-Jan-19 18:33N 44°18' E 008°55'6 6.2
2017-Jan-19 17:32N 44°24' E 008°53'0 0.0
2017-Jan-19 16:32N 44°24' E 008°53'0 0.0
2017-Jan-19 15:32N 44°24' E 008°53'0 0.0
2017-Jan-19 14:32N 44°24' E 008°53'0 0.0
2017-Jan-19 13:26N 44°24' E 008°53'0 0.0
2017-Jan-19 12:29N 44°24' E 008°53'0 0.0
2017-Jan-19 11:29N 44°24' E 008°53'0 0.0
2017-Jan-19 10:32N 44°24' E 008°53'0 0.0
2017-Jan-19 09:29N 44°24' E 008°53'0 0.0
2017-Jan-19 08:32N 44°24' E 008°53'1 0.6
2017-Jan-19 07:34N 44°24' E 008°53'6 6.3
2017-Jan-19 06:34N 44°20' E 009°00'1313.2
2017-Jan-19 05:34N 44°11' E 008°47'1515.2
2017-Jan-19 04:34N 44°01' E 008°31'2914.4
2017-Jan-19 02:34N 43°43' E 008°00'1414.1
2017-Jan-19 01:33N 43°35' E 007°44'1413.8
2017-Jan-19 00:34N 43°27' E 007°28'1413.5
2017-Jan-18 23:33N 43°19' E 007°13'7413.8
2017-Jan-18 18:14N 42°46' E 005°43'1216.1
2017-Jan-18 17:31N 42°42' E 005°28'173 9.0
2017-Jan-17 22:10N 41°13' E 002°08'914.8
2017-Jan-17 21:33N 41°05' E 002°01'1414.7
2017-Jan-17 20:34N 40°54' E 001°50'1515.3
2017-Jan-17 19:33N 40°41' E 001°38'1515.0
2017-Jan-17 18:33N 40°29' E 001°26'1515.1
2017-Jan-17 17:33N 40°16' E 001°15'1514.7
2017-Jan-17 16:33N 40°04' E 001°05'12611.2
2017-Jan-17 05:17N 38°18' W 000°23'4 0.6
2017-Jan-16 22:33N 38°15' W 000°26'1515.2
2017-Jan-16 21:33N 37°60' W 000°25'1615.6
2017-Jan-16 20:33N 37°44' W 000°28'1515.0
2017-Jan-16 19:33N 37°30' W 000°35'1616.1
2017-Jan-16 18:33N 37°19' W 000°50'1615.6
2017-Jan-16 17:33N 37°09' W 001°05'  
2017-Jan-14 06:32N 29°09' W 015°14'1515.1
2017-Jan-14 05:33N 28°59' W 015°27'1515.4
2017-Jan-14 04:33N 28°49' W 015°41'1515.4
2017-Jan-14 03:33N 28°39' W 015°54'20 4.9
2017-Jan-13 23:30N 28°29' W 016°13'0 0.0
2017-Jan-13 22:27N 28°29' W 016°13'0 0.0
2017-Jan-13 21:12N 28°29' W 016°13'0 0.0
2017-Jan-13 19:18N 28°29' W 016°13'0 0.0
2017-Jan-13 18:33N 28°29' W 016°13'0 0.0
2017-Jan-13 17:32N 28°29' W 016°13'5 5.3
2017-Jan-13 16:33N 28°27' W 016°08'1413.8
2017-Jan-13 15:33N 28°22' W 015°54'1414.0
2017-Jan-13 14:33N 28°17' W 015°39'1514.8
2017-Jan-13 13:33N 28°12' W 015°23'5 4.5
2017-Jan-13 12:33N 28°08' W 015°25'0 0.0
2017-Jan-13 11:24N 28°08' W 015°25'0 0.0
2017-Jan-13 10:33N 28°08' W 015°25'0 0.0
2017-Jan-13 09:24N 28°08' W 015°25'0 0.0
2017-Jan-12 21:29N 28°08' W 015°25'0 0.0
2017-Jan-12 20:29N 28°08' W 015°25'0 0.0
2017-Jan-12 19:32N 28°08' W 015°25'0 0.0
2017-Jan-12 18:32N 28°08' W 015°25'0 0.0
2017-Jan-12 17:32N 28°08' W 015°25'0 0.0
2017-Jan-12 16:32N 28°08' W 015°25'0 0.0
2017-Jan-12 15:32N 28°08' W 015°25'0 0.0
2017-Jan-12 14:32N 28°08' W 015°25'0 0.0
2017-Jan-12 11:23N 28°08' W 015°25'0 0.0
2017-Jan-12 10:32N 28°08' W 015°25'0 0.1
2017-Jan-12 09:33N 28°08' W 015°25'4 3.8
2017-Jan-12 08:33N 28°08' W 015°21'1313.3
2017-Jan-12 07:33N 28°16' W 015°08'1313.0
2017-Jan-12 06:33N 28°22' W 014°56'1312.8
2017-Jan-12 05:33N 28°28' W 014°43'69 5.6
2017-Jan-11 17:20N 28°58' W 013°32'0 0.0
2017-Jan-11 15:26N 28°58' W 013°32'0 0.0
2017-Jan-11 14:08N 28°58' W 013°32'0 0.0
2017-Jan-11 13:20N 28°58' W 013°32'0 0.0
2017-Jan-11 10:33N 28°58' W 013°32'8 7.6
2017-Jan-11 09:33N 28°53' W 013°38'1313.2
2017-Jan-11 08:34N 28°48' W 013°52'1312.9
2017-Jan-11 07:33N 28°45' W 014°06'2612.9
2017-Jan-11 05:33N 28°33' W 014°33'1313.0
2017-Jan-11 04:33N 28°27' W 014°45'1313.0
2017-Jan-11 03:33N 28°21' W 014°59'1313.3
2017-Jan-11 02:34N 28°14' W 015°11'1313.4
2017-Jan-11 01:33N 28°07' W 015°25'1 0.8
2017-Jan-11 00:32N 28°08' W 015°25'0 0.0
2017-Jan-10 23:32N 28°08' W 015°25'0 0.0
2017-Jan-10 22:32N 28°08' W 015°25'0 0.0
2017-Jan-10 21:32N 28°08' W 015°25'0 0.0
2017-Jan-10 20:32N 28°08' W 015°25'0 0.0
2017-Jan-10 19:32N 28°08' W 015°25'2 2.3
2017-Jan-10 18:34N 28°09' W 015°23'1312.7
2017-Jan-10 17:33N 28°15' W 015°35'1414.2
2017-Jan-10 16:33N 28°20' W 015°50'1414.2
2017-Jan-10 15:33N 28°25' W 016°06'8 1.9
2017-Jan-10 11:22N 28°29' W 016°13'0 0.0
2017-Jan-10 07:33N 28°29' W 016°13'4 4.0
2017-Jan-10 06:33N 28°30' W 016°09'1414.1
2017-Jan-10 05:33N 28°38' W 015°55'1414.5
2017-Jan-10 04:33N 28°47' W 015°43'1414.1
2017-Jan-10 03:34N 28°57' W 015°31'1514.2
2017-Jan-10 02:31N 29°06' W 015°18'1414.8
2017-Jan-10 01:33N 29°16' W 015°06'1514.6
2017-Jan-10 00:33N 29°25' W 014°54'  
Track history (hours):
 
Tides and Currents Weather Stations Pressure Air Temp Water Temp Dewpoint Dewpoint Depression Visibility Wind Speed Wind Dir Waves Ship Positions

Neuburg

Last reported at 2017-Jan-20 00:31 UTC. Time now 2017-Jan-20 05:54 UTC.
Position N 43°10' E 007°01'.

Length 142 m; draft 6 m.

Type: Ship (hazmat cat A). MMSI: 212740000.

Date/timePositionNaut miles runAvg speedWind from/ knotsBaromVisibWave heightAir tempDewpointWater temp
2017-Jan-20 00:31N 43°10' E 007°01'1718.0
2017-Jan-19 23:33N 43°21' E 007°19'1818.1
2017-Jan-19 22:33N 43°33' E 007°39'3918.0
2017-Jan-19 20:24N 43°57' E 008°20'1517.7
2017-Jan-19 19:34N 44°07' E 008°36'1717.4
2017-Jan-19 18:33N 44°18' E 008°55'6 6.2
2017-Jan-19 17:32N 44°24' E 008°53'0 0.0
2017-Jan-19 16:32N 44°24' E 008°53'0 0.0
2017-Jan-19 15:32N 44°24' E 008°53'0 0.0
2017-Jan-19 14:32N 44°24' E 008°53'0 0.0
2017-Jan-19 13:26N 44°24' E 008°53'0 0.0
2017-Jan-19 12:29N 44°24' E 008°53'0 0.0
2017-Jan-19 11:29N 44°24' E 008°53'0 0.0
2017-Jan-19 10:32N 44°24' E 008°53'0 0.0
2017-Jan-19 09:29N 44°24' E 008°53'0 0.0
2017-Jan-19 08:32N 44°24' E 008°53'1 0.6
2017-Jan-19 07:34N 44°24' E 008°53'6 6.3
2017-Jan-19 06:34N 44°20' E 009°00'1313.2
2017-Jan-19 05:34N 44°11' E 008°47'1515.2
2017-Jan-19 04:34N 44°01' E 008°31'2914.4
2017-Jan-19 02:34N 43°43' E 008°00'1414.1
2017-Jan-19 01:33N 43°35' E 007°44'1413.8
2017-Jan-19 00:34N 43°27' E 007°28'1413.5
2017-Jan-18 23:33N 43°19' E 007°13'7413.8
2017-Jan-18 18:14N 42°46' E 005°43'1216.1
2017-Jan-18 17:31N 42°42' E 005°28'173 9.0
2017-Jan-17 22:10N 41°13' E 002°08'914.8
2017-Jan-17 21:33N 41°05' E 002°01'1414.7
2017-Jan-17 20:34N 40°54' E 001°50'1515.3
2017-Jan-17 19:33N 40°41' E 001°38'1515.0
2017-Jan-17 18:33N 40°29' E 001°26'1515.1
2017-Jan-17 17:33N 40°16' E 001°15'1514.7
2017-Jan-17 16:33N 40°04' E 001°05'12611.2
2017-Jan-17 05:17N 38°18' W 000°23'4 0.6
2017-Jan-16 22:33N 38°15' W 000°26'1515.2
2017-Jan-16 21:33N 37°60' W 000°25'1615.6
2017-Jan-16 20:33N 37°44' W 000°28'1515.0
2017-Jan-16 19:33N 37°30' W 000°35'1616.1
2017-Jan-16 18:33N 37°19' W 000°50'1615.6
2017-Jan-16 17:33N 37°09' W 001°05'  
2017-Jan-14 06:32N 29°09' W 015°14'1515.1
2017-Jan-14 05:33N 28°59' W 015°27'1515.4
2017-Jan-14 04:33N 28°49' W 015°41'1515.4
2017-Jan-14 03:33N 28°39' W 015°54'20 4.9
2017-Jan-13 23:30N 28°29' W 016°13'0 0.0
2017-Jan-13 22:27N 28°29' W 016°13'0 0.0
2017-Jan-13 21:12N 28°29' W 016°13'0 0.0
2017-Jan-13 19:18N 28°29' W 016°13'0 0.0
2017-Jan-13 18:33N 28°29' W 016°13'0 0.0
2017-Jan-13 17:32N 28°29' W 016°13'5 5.3
2017-Jan-13 16:33N 28°27' W 016°08'1413.8
2017-Jan-13 15:33N 28°22' W 015°54'1414.0
2017-Jan-13 14:33N 28°17' W 015°39'1514.8
2017-Jan-13 13:33N 28°12' W 015°23'5 4.5
2017-Jan-13 12:33N 28°08' W 015°25'0 0.0
2017-Jan-13 11:24N 28°08' W 015°25'0 0.0
2017-Jan-13 10:33N 28°08' W 015°25'0 0.0
2017-Jan-13 09:24N 28°08' W 015°25'0 0.0
2017-Jan-12 21:29N 28°08' W 015°25'0 0.0
2017-Jan-12 20:29N 28°08' W 015°25'0 0.0
2017-Jan-12 19:32N 28°08' W 015°25'0 0.0
2017-Jan-12 18:32N 28°08' W 015°25'0 0.0
2017-Jan-12 17:32N 28°08' W 015°25'0 0.0
2017-Jan-12 16:32N 28°08' W 015°25'0 0.0
2017-Jan-12 15:32N 28°08' W 015°25'0 0.0
2017-Jan-12 14:32N 28°08' W 015°25'0 0.0
2017-Jan-12 11:23N 28°08' W 015°25'0 0.0
2017-Jan-12 10:32N 28°08' W 015°25'0 0.1
2017-Jan-12 09:33N 28°08' W 015°25'4 3.8
2017-Jan-12 08:33N 28°08' W 015°21'1313.3
2017-Jan-12 07:33N 28°16' W 015°08'1313.0
2017-Jan-12 06:33N 28°22' W 014°56'1312.8
2017-Jan-12 05:33N 28°28' W 014°43'69 5.6
2017-Jan-11 17:20N 28°58' W 013°32'0 0.0
2017-Jan-11 15:26N 28°58' W 013°32'0 0.0
2017-Jan-11 14:08N 28°58' W 013°32'0 0.0
2017-Jan-11 13:20N 28°58' W 013°32'0 0.0
2017-Jan-11 10:33N 28°58' W 013°32'8 7.6
2017-Jan-11 09:33N 28°53' W 013°38'1313.2
2017-Jan-11 08:34N 28°48' W 013°52'1312.9
2017-Jan-11 07:33N 28°45' W 014°06'2612.9
2017-Jan-11 05:33N 28°33' W 014°33'1313.0
2017-Jan-11 04:33N 28°27' W 014°45'1313.0
2017-Jan-11 03:33N 28°21' W 014°59'1313.3
2017-Jan-11 02:34N 28°14' W 015°11'1313.4
2017-Jan-11 01:33N 28°07' W 015°25'1 0.8
2017-Jan-11 00:32N 28°08' W 015°25'0 0.0
2017-Jan-10 23:32N 28°08' W 015°25'0 0.0
2017-Jan-10 22:32N 28°08' W 015°25'0 0.0
2017-Jan-10 21:32N 28°08' W 015°25'0 0.0
2017-Jan-10 20:32N 28°08' W 015°25'0 0.0
2017-Jan-10 19:32N 28°08' W 015°25'2 2.3
2017-Jan-10 18:34N 28°09' W 015°23'1312.7
2017-Jan-10 17:33N 28°15' W 015°35'1414.2
2017-Jan-10 16:33N 28°20' W 015°50'1414.2
2017-Jan-10 15:33N 28°25' W 016°06'8 1.9
2017-Jan-10 11:22N 28°29' W 016°13'0 0.0
2017-Jan-10 07:33N 28°29' W 016°13'4 4.0
2017-Jan-10 06:33N 28°30' W 016°09'1414.1
2017-Jan-10 05:33N 28°38' W 015°55'1414.5
2017-Jan-10 04:33N 28°47' W 015°43'1414.1
2017-Jan-10 03:34N 28°57' W 015°31'1514.2
2017-Jan-10 02:31N 29°06' W 015°18'1414.8
2017-Jan-10 01:33N 29°16' W 015°06'1514.6
2017-Jan-10 00:33N 29°25' W 014°54'  

Dump ship's entire track history